sensor_id;sensor_type;location;lat;lon;timestamp;temperature;humidity
70051;SHT30;57391;51.306;22.680;2022-09-09T00:01:56;12.06;78.65
70051;SHT30;57391;51.306;22.680;2022-09-09T00:04:37;12.04;78.68
70051;SHT30;57391;51.306;22.680;2022-09-09T00:07:19;12.04;79.13
70051;SHT30;57391;51.306;22.680;2022-09-09T00:16:21;12.09;80.56
70051;SHT30;57391;51.306;22.680;2022-09-09T00:22:12;12.16;80.78
70051;SHT30;57391;51.306;22.680;2022-09-09T00:24:47;12.18;80.69
70051;SHT30;57391;51.306;22.680;2022-09-09T00:30:23;12.20;81.10
70051;SHT30;57391;51.306;22.680;2022-09-09T00:32:59;12.19;81.39
70051;SHT30;57391;51.306;22.680;2022-09-09T00:35:38;12.20;81.38
70051;SHT30;57391;51.306;22.680;2022-09-09T00:38:28;12.18;81.93
70051;SHT30;57391;51.306;22.680;2022-09-09T00:47:17;12.14;82.29
70051;SHT30;57391;51.306;22.680;2022-09-09T00:58:56;12.09;82.97
70051;SHT30;57391;51.306;22.680;2022-09-09T01:01:39;12.10;83.13
70051;SHT30;57391;51.306;22.680;2022-09-09T01:04:09;12.10;83.27
70051;SHT30;57391;51.306;22.680;2022-09-09T01:06:47;12.09;83.61
70051;SHT30;57391;51.306;22.680;2022-09-09T01:12:22;12.10;83.63
70051;SHT30;57391;51.306;22.680;2022-09-09T01:18:03;12.12;83.74
70051;SHT30;57391;51.306;22.680;2022-09-09T01:23:33;12.16;83.90
70051;SHT30;57391;51.306;22.680;2022-09-09T01:26:29;12.18;83.87
70051;SHT30;57391;51.306;22.680;2022-09-09T01:29:09;12.20;83.83
70051;SHT30;57391;51.306;22.680;2022-09-09T01:31:53;12.23;83.81
70051;SHT30;57391;51.306;22.680;2022-09-09T01:34:25;12.27;83.68
70051;SHT30;57391;51.306;22.680;2022-09-09T01:37:07;12.29;83.68
70051;SHT30;57391;51.306;22.680;2022-09-09T01:39:40;12.30;83.63
70051;SHT30;57391;51.306;22.680;2022-09-09T01:42:14;12.32;83.67
70051;SHT30;57391;51.306;22.680;2022-09-09T01:44:43;12.33;83.61
70051;SHT30;57391;51.306;22.680;2022-09-09T01:47:10;12.35;83.53
70051;SHT30;57391;51.306;22.680;2022-09-09T01:49:56;12.33;83.50
70051;SHT30;57391;51.306;22.680;2022-09-09T01:52:26;12.32;83.41
70051;SHT30;57391;51.306;22.680;2022-09-09T01:54:54;12.31;83.38
70051;SHT30;57391;51.306;22.680;2022-09-09T01:57:30;12.29;83.51
70051;SHT30;57391;51.306;22.680;2022-09-09T02:00:29;12.30;83.15
70051;SHT30;57391;51.306;22.680;2022-09-09T02:08:48;12.27;83.42
70051;SHT30;57391;51.306;22.680;2022-09-09T02:11:19;12.26;83.34
70051;SHT30;57391;51.306;22.680;2022-09-09T02:14:12;12.24;83.36
70051;SHT30;57391;51.306;22.680;2022-09-09T02:16:56;12.23;83.33
70051;SHT30;57391;51.306;22.680;2022-09-09T02:19:46;12.22;83.28
70051;SHT30;57391;51.306;22.680;2022-09-09T02:22:30;12.22;83.31
70051;SHT30;57391;51.306;22.680;2022-09-09T02:25:01;12.20;83.40
70051;SHT30;57391;51.306;22.680;2022-09-09T02:27:32;12.18;83.41
70051;SHT30;57391;51.306;22.680;2022-09-09T02:29:59;12.17;83.39
70051;SHT30;57391;51.306;22.680;2022-09-09T02:32:52;12.15;83.45
70051;SHT30;57391;51.306;22.680;2022-09-09T02:35:28;12.15;83.32
70051;SHT30;57391;51.306;22.680;2022-09-09T02:37:58;12.13;83.24
70051;SHT30;57391;51.306;22.680;2022-09-09T02:40:32;12.14;83.37
70051;SHT30;57391;51.306;22.680;2022-09-09T02:43:01;12.11;83.55
70051;SHT30;57391;51.306;22.680;2022-09-09T02:45:36;12.10;83.42
70051;SHT30;57391;51.306;22.680;2022-09-09T02:51:24;12.06;83.70
70051;SHT30;57391;51.306;22.680;2022-09-09T02:54:09;12.05;83.68
70051;SHT30;57391;51.306;22.680;2022-09-09T02:57:08;12.05;83.54
70051;SHT30;57391;51.306;22.680;2022-09-09T02:59:46;12.07;83.61
70051;SHT30;57391;51.306;22.680;2022-09-09T03:02:14;12.05;83.66
70051;SHT30;57391;51.306;22.680;2022-09-09T03:04:42;12.06;83.71
70051;SHT30;57391;51.306;22.680;2022-09-09T03:07:11;12.05;83.57
70051;SHT30;57391;51.306;22.680;2022-09-09T03:09:38;12.07;83.49
70051;SHT30;57391;51.306;22.680;2022-09-09T03:12:06;12.08;83.41
70051;SHT30;57391;51.306;22.680;2022-09-09T03:14:33;12.09;83.45
70051;SHT30;57391;51.306;22.680;2022-09-09T03:17:00;12.08;83.49
70051;SHT30;57391;51.306;22.680;2022-09-09T03:19:30;12.06;83.53
70051;SHT30;57391;51.306;22.680;2022-09-09T03:21:57;12.05;83.59
70051;SHT30;57391;51.306;22.680;2022-09-09T03:24:25;12.02;83.82
70051;SHT30;57391;51.306;22.680;2022-09-09T03:26:52;12.01;83.73
70051;SHT30;57391;51.306;22.680;2022-09-09T03:29:19;12.02;83.65
70051;SHT30;57391;51.306;22.680;2022-09-09T03:31:46;12.03;83.80
70051;SHT30;57391;51.306;22.680;2022-09-09T03:34:14;12.02;83.81
70051;SHT30;57391;51.306;22.680;2022-09-09T03:36:41;12.01;83.88
70051;SHT30;57391;51.306;22.680;2022-09-09T03:39:08;12.02;83.81
70051;SHT30;57391;51.306;22.680;2022-09-09T03:41:35;12.04;83.73
70051;SHT30;57391;51.306;22.680;2022-09-09T03:44:04;12.05;83.71
70051;SHT30;57391;51.306;22.680;2022-09-09T03:46:34;12.06;83.76
70051;SHT30;57391;51.306;22.680;2022-09-09T03:49:01;12.07;83.66
70051;SHT30;57391;51.306;22.680;2022-09-09T03:51:30;12.08;83.65
70051;SHT30;57391;51.306;22.680;2022-09-09T03:53:57;12.10;83.59
70051;SHT30;57391;51.306;22.680;2022-09-09T03:56:25;12.12;83.52
70051;SHT30;57391;51.306;22.680;2022-09-09T03:58:52;12.14;83.43
70051;SHT30;57391;51.306;22.680;2022-09-09T04:01:19;12.18;83.45
70051;SHT30;57391;51.306;22.680;2022-09-09T04:03:46;12.19;83.41
70051;SHT30;57391;51.306;22.680;2022-09-09T04:06:14;12.20;83.41
70051;SHT30;57391;51.306;22.680;2022-09-09T04:08:43;12.22;83.34
70051;SHT30;57391;51.306;22.680;2022-09-09T04:11:10;12.22;83.47
70051;SHT30;57391;51.306;22.680;2022-09-09T04:13:38;12.23;83.40
70051;SHT30;57391;51.306;22.680;2022-09-09T04:16:06;12.23;83.45
70051;SHT30;57391;51.306;22.680;2022-09-09T04:18:34;12.27;83.44
70051;SHT30;57391;51.306;22.680;2022-09-09T04:21:02;12.25;83.43
70051;SHT30;57391;51.306;22.680;2022-09-09T04:23:31;12.27;83.33
70051;SHT30;57391;51.306;22.680;2022-09-09T04:26:00;12.28;83.30
70051;SHT30;57391;51.306;22.680;2022-09-09T04:28:31;12.27;83.37
70051;SHT30;57391;51.306;22.680;2022-09-09T04:31:04;12.28;83.51
70051;SHT30;57391;51.306;22.680;2022-09-09T04:33:38;12.27;83.50
70051;SHT30;57391;51.306;22.680;2022-09-09T04:36:06;12.27;83.49
70051;SHT30;57391;51.306;22.680;2022-09-09T04:38:34;12.29;83.53
70051;SHT30;57391;51.306;22.680;2022-09-09T04:41:03;12.28;83.63
70051;SHT30;57391;51.306;22.680;2022-09-09T04:43:31;12.29;83.60
70051;SHT30;57391;51.306;22.680;2022-09-09T04:46:02;12.30;83.69
70051;SHT30;57391;51.306;22.680;2022-09-09T04:48:30;12.31;83.62
70051;SHT30;57391;51.306;22.680;2022-09-09T04:50:58;12.34;83.58
70051;SHT30;57391;51.306;22.680;2022-09-09T04:53:28;12.38;83.47
70051;SHT30;57391;51.306;22.680;2022-09-09T04:56:02;12.42;83.34
70051;SHT30;57391;51.306;22.680;2022-09-09T04:58:45;12.45;83.38
70051;SHT30;57391;51.306;22.680;2022-09-09T05:01:13;12.48;83.37
70051;SHT30;57391;51.306;22.680;2022-09-09T05:03:45;12.51;83.25
70051;SHT30;57391;51.306;22.680;2022-09-09T05:06:15;12.53;83.21
70051;SHT30;57391;51.306;22.680;2022-09-09T05:08:46;12.56;83.14
70051;SHT30;57391;51.306;22.680;2022-09-09T05:11:25;12.59;83.13
70051;SHT30;57391;51.306;22.680;2022-09-09T05:14:02;12.63;83.20
70051;SHT30;57391;51.306;22.680;2022-09-09T05:16:30;12.63;83.23
70051;SHT30;57391;51.306;22.680;2022-09-09T05:18:58;12.66;83.15
70051;SHT30;57391;51.306;22.680;2022-09-09T05:21:26;12.68;83.13
70051;SHT30;57391;51.306;22.680;2022-09-09T05:23:59;12.69;83.09
70051;SHT30;57391;51.306;22.680;2022-09-09T05:26:27;12.71;83.07
70051;SHT30;57391;51.306;22.680;2022-09-09T05:28:56;12.71;83.02
70051;SHT30;57391;51.306;22.680;2022-09-09T05:31:25;12.70;83.01
70051;SHT30;57391;51.306;22.680;2022-09-09T05:33:54;12.70;83.03
70051;SHT30;57391;51.306;22.680;2022-09-09T05:36:22;12.70;82.98
70051;SHT30;57391;51.306;22.680;2022-09-09T05:38:52;12.69;82.92
70051;SHT30;57391;51.306;22.680;2022-09-09T05:41:23;12.68;82.97
70051;SHT30;57391;51.306;22.680;2022-09-09T05:43:51;12.67;82.89
70051;SHT30;57391;51.306;22.680;2022-09-09T05:46:19;12.68;82.85
70051;SHT30;57391;51.306;22.680;2022-09-09T05:48:49;12.67;82.75
70051;SHT30;57391;51.306;22.680;2022-09-09T05:51:27;12.69;82.76
70051;SHT30;57391;51.306;22.680;2022-09-09T05:54:01;12.72;82.84
70051;SHT30;57391;51.306;22.680;2022-09-09T05:56:30;12.72;82.98
70051;SHT30;57391;51.306;22.680;2022-09-09T05:58:59;12.70;82.95
70051;SHT30;57391;51.306;22.680;2022-09-09T06:01:32;12.68;83.21
70051;SHT30;57391;51.306;22.680;2022-09-09T06:04:02;12.67;83.49
70051;SHT30;57391;51.306;22.680;2022-09-09T06:06:31;12.64;83.73
70051;SHT30;57391;51.306;22.680;2022-09-09T06:09:04;12.62;83.93
70051;SHT30;57391;51.306;22.680;2022-09-09T06:11:37;12.62;84.10
70051;SHT30;57391;51.306;22.680;2022-09-09T06:14:06;12.62;83.97
70051;SHT30;57391;51.306;22.680;2022-09-09T06:16:34;12.65;83.86
70051;SHT30;57391;51.306;22.680;2022-09-09T06:19:05;12.68;83.85
70051;SHT30;57391;51.306;22.680;2022-09-09T06:21:34;12.72;83.83
70051;SHT30;57391;51.306;22.680;2022-09-09T06:24:03;12.74;83.76
70051;SHT30;57391;51.306;22.680;2022-09-09T06:26:34;12.76;83.80
70051;SHT30;57391;51.306;22.680;2022-09-09T06:29:11;12.74;83.93
70051;SHT30;57391;51.306;22.680;2022-09-09T06:31:39;12.72;84.00
70051;SHT30;57391;51.306;22.680;2022-09-09T06:34:14;12.69;84.03
70051;SHT30;57391;51.306;22.680;2022-09-09T06:36:45;12.67;84.07
70051;SHT30;57391;51.306;22.680;2022-09-09T06:39:12;12.67;84.13
70051;SHT30;57391;51.306;22.680;2022-09-09T06:41:42;12.68;84.05
70051;SHT30;57391;51.306;22.680;2022-09-09T06:44:18;12.69;84.12
70051;SHT30;57391;51.306;22.680;2022-09-09T06:46:46;12.70;84.12
70051;SHT30;57391;51.306;22.680;2022-09-09T06:49:16;12.71;84.22
70051;SHT30;57391;51.306;22.680;2022-09-09T06:51:43;12.70;84.23
70051;SHT30;57391;51.306;22.680;2022-09-09T06:54:12;12.70;84.13
70051;SHT30;57391;51.306;22.680;2022-09-09T06:56:43;12.69;84.10
70051;SHT30;57391;51.306;22.680;2022-09-09T06:59:16;12.69;84.07
70051;SHT30;57391;51.306;22.680;2022-09-09T07:01:44;12.70;84.17
70051;SHT30;57391;51.306;22.680;2022-09-09T07:04:13;12.72;84.12
70051;SHT30;57391;51.306;22.680;2022-09-09T07:06:43;12.74;84.11
70051;SHT30;57391;51.306;22.680;2022-09-09T07:09:18;12.75;84.04
70051;SHT30;57391;51.306;22.680;2022-09-09T07:11:49;12.78;84.11
70051;SHT30;57391;51.306;22.680;2022-09-09T07:14:22;12.80;83.94
70051;SHT30;57391;51.306;22.680;2022-09-09T07:16:55;12.82;84.04
70051;SHT30;57391;51.306;22.680;2022-09-09T07:19:22;12.82;83.92
70051;SHT30;57391;51.306;22.680;2022-09-09T07:21:51;12.83;83.97
70051;SHT30;57391;51.306;22.680;2022-09-09T07:24:19;12.83;83.95
70051;SHT30;57391;51.306;22.680;2022-09-09T07:26:46;12.84;83.85
70051;SHT30;57391;51.306;22.680;2022-09-09T07:29:13;12.84;83.87
70051;SHT30;57391;51.306;22.680;2022-09-09T07:31:41;12.83;83.88
70051;SHT30;57391;51.306;22.680;2022-09-09T07:34:12;12.84;83.91
70051;SHT30;57391;51.306;22.680;2022-09-09T07:36:40;12.84;83.98
70051;SHT30;57391;51.306;22.680;2022-09-09T07:39:10;12.85;83.99
70051;SHT30;57391;51.306;22.680;2022-09-09T07:41:42;12.86;84.03
70051;SHT30;57391;51.306;22.680;2022-09-09T07:44:14;12.88;83.90
70051;SHT30;57391;51.306;22.680;2022-09-09T07:46:46;12.91;83.90
70051;SHT30;57391;51.306;22.680;2022-09-09T07:49:16;12.94;83.89
70051;SHT30;57391;51.306;22.680;2022-09-09T07:51:45;12.95;83.89
70051;SHT30;57391;51.306;22.680;2022-09-09T07:54:15;12.97;83.90
70051;SHT30;57391;51.306;22.680;2022-09-09T07:56:51;12.96;83.87
70051;SHT30;57391;51.306;22.680;2022-09-09T07:59:20;12.97;83.96
70051;SHT30;57391;51.306;22.680;2022-09-09T08:01:49;12.99;83.83
70051;SHT30;57391;51.306;22.680;2022-09-09T08:04:20;13.02;83.87
70051;SHT30;57391;51.306;22.680;2022-09-09T08:06:54;13.05;83.98
70051;SHT30;57391;51.306;22.680;2022-09-09T08:09:24;13.06;84.04
70051;SHT30;57391;51.306;22.680;2022-09-09T08:11:57;13.10;84.11
70051;SHT30;57391;51.306;22.680;2022-09-09T08:14:25;13.12;84.18
70051;SHT30;57391;51.306;22.680;2022-09-09T08:16:52;13.13;84.23
70051;SHT30;57391;51.306;22.680;2022-09-09T08:19:22;13.16;84.32
70051;SHT30;57391;51.306;22.680;2022-09-09T08:21:50;13.18;84.42
70051;SHT30;57391;51.306;22.680;2022-09-09T08:24:17;13.19;84.56
70051;SHT30;57391;51.306;22.680;2022-09-09T08:26:48;13.18;84.64
70051;SHT30;57391;51.306;22.680;2022-09-09T08:29:17;13.16;84.75
70051;SHT30;57391;51.306;22.680;2022-09-09T08:31:47;13.17;84.81
70051;SHT30;57391;51.306;22.680;2022-09-09T08:34:19;13.19;84.90
70051;SHT30;57391;51.306;22.680;2022-09-09T08:36:49;13.20;84.91
70051;SHT30;57391;51.306;22.680;2022-09-09T08:39:20;13.25;84.83
70051;SHT30;57391;51.306;22.680;2022-09-09T08:51:01;13.31;84.93
70051;SHT30;57391;51.306;22.680;2022-09-09T08:53:39;13.32;84.94
70051;SHT30;57391;51.306;22.680;2022-09-09T08:56:14;13.35;84.94
70051;SHT30;57391;51.306;22.680;2022-09-09T08:58:52;13.41;84.96
70051;SHT30;57391;51.306;22.680;2022-09-09T09:01:47;13.46;85.09
70051;SHT30;57391;51.306;22.680;2022-09-09T09:13:00;13.50;84.98
70051;SHT30;57391;51.306;22.680;2022-09-09T09:15:30;13.52;84.91
70051;SHT30;57391;51.306;22.680;2022-09-09T09:18:04;13.52;84.88
70051;SHT30;57391;51.306;22.680;2022-09-09T09:20:39;13.54;84.94
70051;SHT30;57391;51.306;22.680;2022-09-09T09:23:35;13.55;84.88
70051;SHT30;57391;51.306;22.680;2022-09-09T09:26:15;13.58;84.90
70051;SHT30;57391;51.306;22.680;2022-09-09T09:28:42;13.60;84.92
70051;SHT30;57391;51.306;22.680;2022-09-09T09:31:13;13.61;85.00
70051;SHT30;57391;51.306;22.680;2022-09-09T09:36:24;13.58;84.99
70051;SHT30;57391;51.306;22.680;2022-09-09T09:39:05;13.57;84.94
70051;SHT30;57391;51.306;22.680;2022-09-09T09:41:39;13.56;84.98
70051;SHT30;57391;51.306;22.680;2022-09-09T09:47:20;13.55;85.11
70051;SHT30;57391;51.306;22.680;2022-09-09T09:50:16;13.56;85.00
70051;SHT30;57391;51.306;22.680;2022-09-09T09:52:53;13.56;85.07
70051;SHT30;57391;51.306;22.680;2022-09-09T09:55:23;13.58;85.02
70051;SHT30;57391;51.306;22.680;2022-09-09T09:57:52;13.61;85.01
70051;SHT30;57391;51.306;22.680;2022-09-09T10:00:21;13.61;84.87
70051;SHT30;57391;51.306;22.680;2022-09-09T10:02:59;13.62;84.79
70051;SHT30;57391;51.306;22.680;2022-09-09T10:05:29;13.65;84.79
70051;SHT30;57391;51.306;22.680;2022-09-09T10:08:12;13.69;84.65
70051;SHT30;57391;51.306;22.680;2022-09-09T10:13:58;13.79;84.48
70051;SHT30;57391;51.306;22.680;2022-09-09T10:19:59;13.85;84.39
70051;SHT30;57391;51.306;22.680;2022-09-09T10:22:44;13.86;84.35
70051;SHT30;57391;51.306;22.680;2022-09-09T10:25:36;13.90;84.47
70051;SHT30;57391;51.306;22.680;2022-09-09T10:43:04;13.98;83.91
70051;SHT30;57391;51.306;22.680;2022-09-09T10:46:09;13.96;83.92
70051;SHT30;57391;51.306;22.680;2022-09-09T10:52:22;13.97;83.95
70051;SHT30;57391;51.306;22.680;2022-09-09T10:55:10;13.99;83.73
70051;SHT30;57391;51.306;22.680;2022-09-09T10:57:44;14.01;83.68
70051;SHT30;57391;51.306;22.680;2022-09-09T11:00:24;14.02;83.76
70051;SHT30;57391;51.306;22.680;2022-09-09T11:03:03;14.07;83.76
70051;SHT30;57391;51.306;22.680;2022-09-09T11:05:41;14.09;83.66
70051;SHT30;57391;51.306;22.680;2022-09-09T11:08:19;14.12;83.58
70051;SHT30;57391;51.306;22.680;2022-09-09T11:10:53;14.14;83.61
70051;SHT30;57391;51.306;22.680;2022-09-09T11:17:02;14.18;83.52
70051;SHT30;57391;51.306;22.680;2022-09-09T11:19:40;14.20;83.56
70051;SHT30;57391;51.306;22.680;2022-09-09T11:28:25;14.25;83.50
70051;SHT30;57391;51.306;22.680;2022-09-09T11:31:40;14.25;83.52
70051;SHT30;57391;51.306;22.680;2022-09-09T11:40:08;14.27;83.60
70051;SHT30;57391;51.306;22.680;2022-09-09T11:42:46;14.27;83.63
70051;SHT30;57391;51.306;22.680;2022-09-09T11:47:53;14.26;83.50
70051;SHT30;57391;51.306;22.680;2022-09-09T11:53:03;14.31;83.65
70051;SHT30;57391;51.306;22.680;2022-09-09T11:55:47;14.32;83.69
70051;SHT30;57391;51.306;22.680;2022-09-09T11:58:27;14.33;83.70
70051;SHT30;57391;51.306;22.680;2022-09-09T12:00:58;14.35;83.71
70051;SHT30;57391;51.306;22.680;2022-09-09T12:03:43;14.36;83.63
70051;SHT30;57391;51.306;22.680;2022-09-09T12:06:26;14.37;83.65
70051;SHT30;57391;51.306;22.680;2022-09-09T12:09:17;14.35;83.71
70051;SHT30;57391;51.306;22.680;2022-09-09T12:11:51;14.34;83.64
70051;SHT30;57391;51.306;22.680;2022-09-09T12:14:34;14.34;83.74
70051;SHT30;57391;51.306;22.680;2022-09-09T12:17:24;14.34;83.86
70051;SHT30;57391;51.306;22.680;2022-09-09T12:20:12;14.35;84.01
70051;SHT30;57391;51.306;22.680;2022-09-09T12:25:52;14.33;84.07
70051;SHT30;57391;51.306;22.680;2022-09-09T12:34:28;14.32;83.99
70051;SHT30;57391;51.306;22.680;2022-09-09T12:40:04;14.33;84.25
70051;SHT30;57391;51.306;22.680;2022-09-09T12:42:48;14.30;84.36
70051;SHT30;57391;51.306;22.680;2022-09-09T12:45:22;14.29;84.44
70051;SHT30;57391;51.306;22.680;2022-09-09T12:47:54;14.29;84.55
70051;SHT30;57391;51.306;22.680;2022-09-09T12:50:33;14.31;84.58
70051;SHT30;57391;51.306;22.680;2022-09-09T12:53:08;14.32;84.58
70051;SHT30;57391;51.306;22.680;2022-09-09T12:55:48;14.29;84.65
70051;SHT30;57391;51.306;22.680;2022-09-09T12:58:19;14.28;84.79
70051;SHT30;57391;51.306;22.680;2022-09-09T13:00:51;14.30;84.79
70051;SHT30;57391;51.306;22.680;2022-09-09T13:03:22;14.32;84.82
70051;SHT30;57391;51.306;22.680;2022-09-09T13:05:51;14.34;84.81
70051;SHT30;57391;51.306;22.680;2022-09-09T13:08:20;14.33;84.83
70051;SHT30;57391;51.306;22.680;2022-09-09T13:10:50;14.34;84.92
70051;SHT30;57391;51.306;22.680;2022-09-09T13:13:27;14.36;84.98
70051;SHT30;57391;51.306;22.680;2022-09-09T13:19:08;14.42;85.06
70051;SHT30;57391;51.306;22.680;2022-09-09T13:21:42;14.43;85.01
70051;SHT30;57391;51.306;22.680;2022-09-09T13:26:55;14.48;85.09
70051;SHT30;57391;51.306;22.680;2022-09-09T13:29:25;14.47;85.07
70051;SHT30;57391;51.306;22.680;2022-09-09T13:31:52;14.48;85.03
70051;SHT30;57391;51.306;22.680;2022-09-09T13:34:32;14.47;84.96
70051;SHT30;57391;51.306;22.680;2022-09-09T13:37:05;14.48;85.01
70051;SHT30;57391;51.306;22.680;2022-09-09T13:39:53;14.49;84.97
70051;SHT30;57391;51.306;22.680;2022-09-09T13:42:24;14.51;85.03
70051;SHT30;57391;51.306;22.680;2022-09-09T13:44:56;14.53;85.05
70051;SHT30;57391;51.306;22.680;2022-09-09T13:47:28;14.54;85.05
70051;SHT30;57391;51.306;22.680;2022-09-09T13:50:17;14.54;85.13
70051;SHT30;57391;51.306;22.680;2022-09-09T13:52:54;14.54;85.07
70051;SHT30;57391;51.306;22.680;2022-09-09T13:55:27;14.54;85.07
70051;SHT30;57391;51.306;22.680;2022-09-09T13:57:58;14.52;85.02
70051;SHT30;57391;51.306;22.680;2022-09-09T14:00:32;14.50;85.01
70051;SHT30;57391;51.306;22.680;2022-09-09T14:03:01;14.51;85.01
70051;SHT30;57391;51.306;22.680;2022-09-09T14:05:29;14.53;85.05
70051;SHT30;57391;51.306;22.680;2022-09-09T14:07:59;14.56;85.18
70051;SHT30;57391;51.306;22.680;2022-09-09T14:10:27;14.57;85.14
70051;SHT30;57391;51.306;22.680;2022-09-09T14:12:54;14.58;85.18
70051;SHT30;57391;51.306;22.680;2022-09-09T14:15:21;14.56;85.07
70051;SHT30;57391;51.306;22.680;2022-09-09T14:17:48;14.53;85.02
70051;SHT30;57391;51.306;22.680;2022-09-09T14:20:16;14.54;85.13
70051;SHT30;57391;51.306;22.680;2022-09-09T14:22:43;14.55;85.22
70051;SHT30;57391;51.306;22.680;2022-09-09T14:25:11;14.52;85.20
70051;SHT30;57391;51.306;22.680;2022-09-09T14:27:41;14.52;85.12
70051;SHT30;57391;51.306;22.680;2022-09-09T14:30:09;14.52;85.03
70051;SHT30;57391;51.306;22.680;2022-09-09T14:32:36;14.50;84.91
70051;SHT30;57391;51.306;22.680;2022-09-09T14:35:04;14.52;84.95
70051;SHT30;57391;51.306;22.680;2022-09-09T14:37:31;14.54;85.07
70051;SHT30;57391;51.306;22.680;2022-09-09T14:39:58;14.56;85.03
70051;SHT30;57391;51.306;22.680;2022-09-09T14:42:25;14.56;84.91
70051;SHT30;57391;51.306;22.680;2022-09-09T14:44:53;14.56;84.98
70051;SHT30;57391;51.306;22.680;2022-09-09T14:47:20;14.56;84.90
70051;SHT30;57391;51.306;22.680;2022-09-09T14:49:47;14.57;84.93
70051;SHT30;57391;51.306;22.680;2022-09-09T14:52:16;14.58;84.94
70051;SHT30;57391;51.306;22.680;2022-09-09T14:54:44;14.59;84.86
70051;SHT30;57391;51.306;22.680;2022-09-09T14:57:11;14.58;84.74
70051;SHT30;57391;51.306;22.680;2022-09-09T14:59:38;14.55;84.86
70051;SHT30;57391;51.306;22.680;2022-09-09T15:02:07;14.54;84.81
70051;SHT30;57391;51.306;22.680;2022-09-09T15:04:36;14.56;84.89
70051;SHT30;57391;51.306;22.680;2022-09-09T15:07:03;14.56;84.85
70051;SHT30;57391;51.306;22.680;2022-09-09T15:09:31;14.54;84.83
70051;SHT30;57391;51.306;22.680;2022-09-09T15:11:59;14.55;84.87
70051;SHT30;57391;51.306;22.680;2022-09-09T15:14:27;14.53;84.76
70051;SHT30;57391;51.306;22.680;2022-09-09T15:16:54;14.50;84.77
70051;SHT30;57391;51.306;22.680;2022-09-09T15:19:21;14.49;84.82
70051;SHT30;57391;51.306;22.680;2022-09-09T15:21:48;14.46;84.90
70051;SHT30;57391;51.306;22.680;2022-09-09T15:24:15;14.45;84.94
70051;SHT30;57391;51.306;22.680;2022-09-09T15:26:42;14.45;85.03
70051;SHT30;57391;51.306;22.680;2022-09-09T15:29:09;14.44;85.01
70051;SHT30;57391;51.306;22.680;2022-09-09T15:31:37;14.44;85.01
70051;SHT30;57391;51.306;22.680;2022-09-09T15:34:05;14.45;84.99
70051;SHT30;57391;51.306;22.680;2022-09-09T15:36:35;14.43;84.96
70051;SHT30;57391;51.306;22.680;2022-09-09T15:39:11;14.42;85.12
70051;SHT30;57391;51.306;22.680;2022-09-09T15:41:43;14.42;85.18
70051;SHT30;57391;51.306;22.680;2022-09-09T15:44:12;14.44;85.12
70051;SHT30;57391;51.306;22.680;2022-09-09T15:46:44;14.43;85.12
70051;SHT30;57391;51.306;22.680;2022-09-09T15:49:19;14.42;85.07
70051;SHT30;57391;51.306;22.680;2022-09-09T15:51:53;14.43;85.08
70051;SHT30;57391;51.306;22.680;2022-09-09T15:54:24;14.45;85.11
70051;SHT30;57391;51.306;22.680;2022-09-09T15:56:53;14.47;85.10
70051;SHT30;57391;51.306;22.680;2022-09-09T15:59:23;14.47;85.03
70051;SHT30;57391;51.306;22.680;2022-09-09T16:01:54;14.48;85.00
70051;SHT30;57391;51.306;22.680;2022-09-09T16:04:24;14.48;85.02
70051;SHT30;57391;51.306;22.680;2022-09-09T16:06:53;14.48;85.01
70051;SHT30;57391;51.306;22.680;2022-09-09T16:09:27;14.50;85.04
70051;SHT30;57391;51.306;22.680;2022-09-09T16:11:56;14.51;85.04
70051;SHT30;57391;51.306;22.680;2022-09-09T16:14:25;14.52;84.92
70051;SHT30;57391;51.306;22.680;2022-09-09T16:16:54;14.54;84.90
70051;SHT30;57391;51.306;22.680;2022-09-09T16:19:21;14.55;84.75
70051;SHT30;57391;51.306;22.680;2022-09-09T16:21:49;14.56;84.75
70051;SHT30;57391;51.306;22.680;2022-09-09T16:24:17;14.56;84.71
70051;SHT30;57391;51.306;22.680;2022-09-09T16:26:50;14.57;84.70
70051;SHT30;57391;51.306;22.680;2022-09-09T16:29:21;14.58;84.66
70051;SHT30;57391;51.306;22.680;2022-09-09T16:31:50;14.59;84.64
70051;SHT30;57391;51.306;22.680;2022-09-09T16:34:18;14.61;84.63
70051;SHT30;57391;51.306;22.680;2022-09-09T16:36:48;14.63;84.62
70051;SHT30;57391;51.306;22.680;2022-09-09T16:39:19;14.62;84.66
70051;SHT30;57391;51.306;22.680;2022-09-09T16:41:47;14.61;84.69
70051;SHT30;57391;51.306;22.680;2022-09-09T16:44:17;14.58;84.77
70051;SHT30;57391;51.306;22.680;2022-09-09T16:46:46;14.55;84.89
70051;SHT30;57391;51.306;22.680;2022-09-09T16:49:15;14.52;84.92
70051;SHT30;57391;51.306;22.680;2022-09-09T16:51:44;14.51;85.00
70051;SHT30;57391;51.306;22.680;2022-09-09T16:54:14;14.49;85.06
70051;SHT30;57391;51.306;22.680;2022-09-09T16:56:45;14.48;85.10
70051;SHT30;57391;51.306;22.680;2022-09-09T16:59:15;14.46;85.23
70051;SHT30;57391;51.306;22.680;2022-09-09T17:01:46;14.40;85.48
70051;SHT30;57391;51.306;22.680;2022-09-09T17:04:34;14.31;85.72
70051;SHT30;57391;51.306;22.680;2022-09-09T17:07:22;14.24;85.91
70051;SHT30;57391;51.306;22.680;2022-09-09T17:09:49;14.19;86.17
70051;SHT30;57391;51.306;22.680;2022-09-09T17:12:16;14.12;86.39
70051;SHT30;57391;51.306;22.680;2022-09-09T17:14:44;14.07;86.57
70051;SHT30;57391;51.306;22.680;2022-09-09T17:17:11;14.05;86.69
70051;SHT30;57391;51.306;22.680;2022-09-09T17:19:39;14.03;86.77
70051;SHT30;57391;51.306;22.680;2022-09-09T17:22:06;14.01;86.86
70051;SHT30;57391;51.306;22.680;2022-09-09T17:24:35;13.97;87.01
70051;SHT30;57391;51.306;22.680;2022-09-09T17:27:04;13.94;87.18
70051;SHT30;57391;51.306;22.680;2022-09-09T17:29:31;13.87;87.24
70051;SHT30;57391;51.306;22.680;2022-09-09T17:32:01;13.81;87.32
70051;SHT30;57391;51.306;22.680;2022-09-09T17:34:31;13.76;87.29
70051;SHT30;57391;51.306;22.680;2022-09-09T17:36:59;13.76;87.29
70051;SHT30;57391;51.306;22.680;2022-09-09T17:39:28;13.73;87.36
70051;SHT30;57391;51.306;22.680;2022-09-09T17:41:55;13.70;87.36
70051;SHT30;57391;51.306;22.680;2022-09-09T17:44:22;13.67;87.46
70051;SHT30;57391;51.306;22.680;2022-09-09T17:46:50;13.64;87.51
70051;SHT30;57391;51.306;22.680;2022-09-09T17:49:17;13.63;87.50
70051;SHT30;57391;51.306;22.680;2022-09-09T17:51:46;13.61;87.63
70051;SHT30;57391;51.306;22.680;2022-09-09T17:54:15;13.58;87.66
70051;SHT30;57391;51.306;22.680;2022-09-09T17:56:46;13.55;87.68
70051;SHT30;57391;51.306;22.680;2022-09-09T17:59:16;13.52;87.70
70051;SHT30;57391;51.306;22.680;2022-09-09T18:01:45;13.49;87.72